Time;durP1;ratioP1;P1;durP2;ratioP2;P2;SDS_P1;SDS_P2;PMS_P1;PMS_P2;Temp;Humidity;BMP_temperature;BMP_pressure;BME280_temperature;BME280_humidity;BME280_pressure;Samples;Min_cycle;Max_cycle;Signal;HPM_P1;HPM_P2
2022/06/30 00:00:43;;;;;;;0.50;0.38;;;23.10;53.40;;;;;;6270387;28;20550;-67
2022/06/30 00:03:43;;;;;;;0.20;0.20;;;23.10;53.40;;;;;;6270146;28;20024;-67
2022/06/30 00:06:44;;;;;;;0.30;0.30;;;23.10;53.40;;;;;;6270218;28;20045;-67
2022/06/30 00:09:45;;;;;;;0.20;0.20;;;23.10;53.40;;;;;;6270374;28;20021;-67
2022/06/30 00:12:45;;;;;;;0.30;0.30;;;23.10;53.40;;;;;;6270058;28;20021;-67
2022/06/30 00:15:46;;;;;;;0.50;0.50;;;23.10;53.40;;;;;;6270776;28;20024;-67
2022/06/30 00:18:47;;;;;;;0.30;0.30;;;23.10;53.40;;;;;;6267966;28;20044;-67
2022/06/30 00:21:47;;;;;;;0.22;0.22;;;23.10;53.40;;;;;;6269817;28;20079;-67
2022/06/30 00:24:48;;;;;;;0.57;0.43;;;23.10;53.40;;;;;;6269762;28;20032;-67
2022/06/30 00:27:49;;;;;;;0.50;0.45;;;23.10;53.40;;;;;;6268453;28;20045;-67
2022/06/30 00:30:51;;;;;;;0.75;0.47;;;23.10;53.50;;;;;;6269415;28;20482;-67
2022/06/30 00:33:52;;;;;;;0.50;0.30;;;23.10;53.40;;;;;;6268273;28;20028;-67
2022/06/30 00:36:53;;;;;;;0.30;0.30;;;23.10;53.40;;;;;;6269913;28;20546;-67
2022/06/30 00:39:54;;;;;;;0.20;0.20;;;23.10;53.40;;;;;;6268228;28;20028;-67
2022/06/30 00:42:55;;;;;;;0.60;0.50;;;23.10;53.40;;;;;;6269395;28;20048;-67
2022/06/30 00:45:55;;;;;;;0.60;0.38;;;23.10;53.40;;;;;;6269375;28;20052;-67
2022/06/30 00:48:56;;;;;;;0.35;0.30;;;23.10;53.50;;;;;;6269522;28;20048;-67
2022/06/30 00:51:59;;;;;;;0.30;0.30;;;23.10;53.40;;;;;;6269384;28;20068;-66
2022/06/30 00:55:03;;;;;;;0.25;0.25;;;23.10;53.40;;;;;;6269126;28;20021;-67
2022/06/30 00:58:06;;;;;;;0.30;0.30;;;23.10;53.50;;;;;;6269109;28;20057;-67
2022/06/30 01:01:12;;;;;;;0.25;0.25;;;23.10;53.50;;;;;;6268843;28;20036;-67
2022/06/30 01:04:17;;;;;;;0.60;0.40;;;23.10;53.50;;;;;;6269049;28;20025;-67
2022/06/30 01:07:19;;;;;;;0.50;0.40;;;23.10;53.50;;;;;;6269268;28;20108;-67
2022/06/30 01:13:41;;;;;;;0.30;0.30;;;23.10;53.50;;;;;;6268705;28;20021;-67
2022/06/30 01:16:41;;;;;;;0.45;0.30;;;23.10;53.50;;;;;;6268803;28;20051;-66
2022/06/30 01:19:53;;;;;;;0.50;0.40;;;23.10;53.50;;;;;;6268395;28;20386;-67
2022/06/30 01:22:55;;;;;;;0.30;0.30;;;23.10;53.50;;;;;;6268761;28;20033;-66
2022/06/30 01:25:56;;;;;;;0.30;0.30;;;23.10;53.50;;;;;;6266837;28;20124;-67
2022/06/30 01:28:57;;;;;;;0.20;0.20;;;23.10;53.50;;;;;;6267352;28;20024;-67
2022/06/30 01:31:58;;;;;;;0.32;0.28;;;23.10;53.50;;;;;;6267994;28;20533;-67
2022/06/30 01:34:59;;;;;;;0.40;0.30;;;23.10;53.50;;;;;;6268592;28;20059;-67
2022/06/30 01:38:00;;;;;;;0.30;0.30;;;23.10;53.50;;;;;;6267952;28;20526;-67
2022/06/30 01:41:01;;;;;;;0.30;0.30;;;23.10;53.50;;;;;;6268098;28;20028;-67
2022/06/30 01:44:01;;;;;;;0.30;0.30;;;23.10;53.50;;;;;;6266341;28;20068;-67
2022/06/30 01:47:02;;;;;;;0.95;0.30;;;23.10;53.50;;;;;;6268116;28;20382;-67
2022/06/30 01:50:12;;;;;;;0.30;0.30;;;23.10;53.50;;;;;;6268063;28;20539;-67
2022/06/30 01:53:12;;;;;;;0.30;0.28;;;23.10;53.50;;;;;;6267749;28;20083;-67
2022/06/30 01:56:13;;;;;;;0.60;0.40;;;23.10;53.50;;;;;;6267750;28;20029;-67
2022/06/30 01:59:14;;;;;;;0.40;0.35;;;23.10;53.50;;;;;;6267772;28;20025;-67
2022/06/30 02:02:15;;;;;;;0.32;0.32;;;23.10;54.20;;;;;;6267885;28;20617;-67
2022/06/30 02:05:16;;;;;;;0.55;0.30;;;23.10;53.50;;;;;;6267799;28;20084;-66
2022/06/30 02:08:17;;;;;;;0.28;0.22;;;23.10;53.50;;;;;;6267900;28;20025;-67
2022/06/30 02:11:17;;;;;;;0.40;0.32;;;23.10;53.50;;;;;;6267737;28;20120;-67
2022/06/30 02:14:18;;;;;;;0.40;0.40;;;23.10;53.60;;;;;;6267714;28;20120;-67
2022/06/30 02:17:19;;;;;;;0.50;0.38;;;23.10;53.50;;;;;;6266150;28;20049;-67
2022/06/30 02:20:21;;;;;;;0.30;0.30;;;23.10;53.50;;;;;;6267584;28;20017;-67
2022/06/30 02:23:22;;;;;;;0.20;0.20;;;23.10;53.50;;;;;;6267574;28;20021;-67
2022/06/30 02:26:23;;;;;;;0.30;0.30;;;23.10;53.60;;;;;;6267381;28;20028;-67
2022/06/30 02:29:24;;;;;;;0.40;0.40;;;23.10;53.60;;;;;;6266114;28;20028;-67
2022/06/30 02:32:24;;;;;;;0.50;0.50;;;23.10;53.60;;;;;;6266894;28;20021;-67
2022/06/30 02:35:25;;;;;;;0.90;0.40;;;23.10;53.60;;;;;;6267267;28;20512;-67
2022/06/30 02:38:26;;;;;;;0.30;0.30;;;23.10;53.60;;;;;;6267280;28;20075;-67
2022/06/30 02:41:26;;;;;;;0.30;0.30;;;23.10;53.60;;;;;;6266835;28;20554;-67
2022/06/30 02:44:27;;;;;;;0.30;0.28;;;23.10;53.60;;;;;;6270843;28;20059;-67
2022/06/30 02:47:37;;;;;;;0.40;0.40;;;23.10;53.60;;;;;;6271949;28;20816;-67
2022/06/30 02:50:38;;;;;;;0.38;0.38;;;23.10;53.60;;;;;;6272257;28;20494;-67
2022/06/30 02:53:39;;;;;;;0.40;0.40;;;23.10;53.60;;;;;;6271836;28;20021;-67
2022/06/30 02:56:40;;;;;;;0.82;0.50;;;23.10;53.60;;;;;;6270318;28;20025;-67
2022/06/30 02:59:41;;;;;;;0.30;0.30;;;23.10;53.60;;;;;;6271652;28;20104;-66
2022/06/30 03:02:42;;;;;;;0.50;0.40;;;23.10;53.60;;;;;;6270546;28;20029;-67
2022/06/30 03:05:42;;;;;;;0.30;0.30;;;23.10;53.60;;;;;;6271659;28;20068;-67
2022/06/30 03:08:44;;;;;;;0.43;0.30;;;23.10;53.60;;;;;;6271745;28;20044;-66
2022/06/30 03:11:44;;;;;;;0.50;0.40;;;23.10;53.60;;;;;;6270350;28;20040;-66
2022/06/30 03:14:45;;;;;;;0.30;0.30;;;23.10;53.60;;;;;;6271770;28;20029;-67
2022/06/30 03:17:46;;;;;;;0.38;0.32;;;23.10;53.60;;;;;;6270076;28;20029;-67
2022/06/30 03:20:46;;;;;;;1.02;0.40;;;23.10;53.60;;;;;;6271443;28;20104;-67
2022/06/30 03:23:48;;;;;;;0.40;0.30;;;23.10;53.60;;;;;;6271254;28;20036;-67
2022/06/30 03:26:49;;;;;;;0.30;0.30;;;23.10;53.60;;;;;;6269860;28;20029;-67
2022/06/30 03:29:50;;;;;;;0.82;0.30;;;23.10;53.60;;;;;;6271307;28;20079;-67
2022/06/30 03:32:51;;;;;;;0.22;0.22;;;23.10;53.60;;;;;;6270818;28;20611;-67
2022/06/30 03:35:52;;;;;;;0.40;0.40;;;23.10;53.60;;;;;;6270810;28;20122;-67
2022/06/30 03:38:53;;;;;;;0.50;0.40;;;23.10;53.60;;;;;;6271106;28;20029;-67
2022/06/30 03:41:54;;;;;;;0.30;0.30;;;23.10;53.60;;;;;;6271225;28;20512;-67
2022/06/30 03:44:54;;;;;;;0.30;0.30;;;23.10;53.60;;;;;;6271153;28;20048;-66
2022/06/30 03:47:55;;;;;;;0.30;0.30;;;23.10;53.60;;;;;;6271032;28;20036;-66
2022/06/30 03:50:56;;;;;;;0.40;0.30;;;23.10;53.60;;;;;;6269423;28;20039;-67
2022/06/30 03:53:57;;;;;;;0.50;0.40;;;23.10;53.60;;;;;;6268818;28;20027;-67
2022/06/30 03:56:57;;;;;;;0.40;0.40;;;23.10;53.60;;;;;;6270426;28;20104;-67
2022/06/30 03:59:58;;;;;;;0.40;0.40;;;23.10;53.60;;;;;;6269705;28;20033;-67
2022/06/30 04:02:59;;;;;;;0.30;0.30;;;23.10;53.60;;;;;;6270193;28;20025;-67
2022/06/30 04:05:59;;;;;;;0.30;0.30;;;23.10;53.60;;;;;;6270135;28;20033;-67
2022/06/30 04:09:01;;;;;;;0.30;0.30;;;23.10;53.60;;;;;;6270129;28;20135;-67
2022/06/30 04:12:02;;;;;;;1.27;0.70;;;23.10;53.60;;;;;;6269450;28;20548;-67
2022/06/30 04:15:03;;;;;;;0.40;0.40;;;23.10;53.60;;;;;;6269920;28;20177;-67
2022/06/30 04:18:04;;;;;;;0.40;0.30;;;23.10;53.60;;;;;;6270099;28;20078;-66
2022/06/30 04:21:05;;;;;;;0.40;0.40;;;23.10;53.60;;;;;;6269759;28;20486;-67
2022/06/30 04:24:06;;;;;;;0.45;0.45;;;23.10;53.70;;;;;;6269991;28;20070;-67
2022/06/30 04:27:06;;;;;;;0.25;0.20;;;23.10;53.60;;;;;;6269841;28;20533;-67
2022/06/30 04:30:07;;;;;;;0.38;0.30;;;23.10;53.70;;;;;;6270014;28;20025;-67
2022/06/30 04:33:08;;;;;;;0.45;0.28;;;23.10;53.60;;;;;;6269501;28;20036;-67
2022/06/30 04:36:10;;;;;;;0.40;0.40;;;23.10;53.70;;;;;;6271733;28;20060;-67
2022/06/30 04:39:10;;;;;;;0.30;0.30;;;23.10;53.70;;;;;;6268575;28;20075;-66
2022/06/30 04:42:11;;;;;;;0.32;0.32;;;23.10;53.70;;;;;;6269777;28;20013;-67
2022/06/30 04:45:12;;;;;;;0.30;0.30;;;23.10;53.70;;;;;;6269455;28;20041;-66
2022/06/30 04:48:13;;;;;;;0.20;0.20;;;23.10;53.70;;;;;;6269255;28;20029;-67
2022/06/30 04:51:13;;;;;;;0.25;0.25;;;23.10;53.70;;;;;;6269080;28;20608;-66
2022/06/30 04:54:14;;;;;;;0.30;0.30;;;23.10;53.70;;;;;;6269340;28;20524;-67
2022/06/30 04:57:15;;;;;;;0.25;0.25;;;23.10;53.70;;;;;;6269060;28;20513;-67
2022/06/30 05:00:40;;;;;;;0.22;0.22;;;23.10;53.70;;;;;;6267418;28;20033;-67
2022/06/30 05:03:42;;;;;;;0.40;0.30;;;23.10;53.60;;;;;;6244603;28;20033;-67
2022/06/30 05:06:43;;;;;;;0.88;0.40;;;23.10;53.70;;;;;;6243841;28;20033;-67
2022/06/30 05:09:43;;;;;;;0.40;0.40;;;23.10;53.70;;;;;;6265451;28;20052;-67
2022/06/30 05:12:44;;;;;;;0.30;0.30;;;23.10;53.70;;;;;;6266694;28;20029;-67
2022/06/30 05:15:45;;;;;;;0.30;0.30;;;23.10;53.70;;;;;;6267528;28;20027;-67
2022/06/30 05:18:47;;;;;;;0.30;0.30;;;23.10;53.70;;;;;;6268589;28;20060;-67
2022/06/30 05:21:47;;;;;;;0.30;0.30;;;23.10;53.70;;;;;;6268591;28;20048;-67
2022/06/30 05:28:07;;;;;;;0.60;0.40;;;23.10;53.70;;;;;;6268448;28;20033;-66
2022/06/30 05:31:08;;;;;;;0.30;0.30;;;23.10;54.40;;;;;;6268169;28;20063;-67
2022/06/30 05:34:09;;;;;;;0.30;0.30;;;23.10;53.70;;;;;;6266922;28;20031;-66
2022/06/30 05:37:10;;;;;;;0.30;0.30;;;23.10;53.70;;;;;;6268448;28;20129;-67
2022/06/30 05:40:11;;;;;;;0.55;0.38;;;23.10;53.70;;;;;;6266812;28;20108;-67
2022/06/30 05:43:16;;;;;;;0.20;0.20;;;23.10;53.70;;;;;;6268006;28;20406;-67
2022/06/30 05:46:17;;;;;;;0.30;0.30;;;23.10;53.70;;;;;;6267756;28;20033;-67
2022/06/30 05:49:17;;;;;;;0.30;0.30;;;23.10;53.70;;;;;;6267699;28;20036;-67
2022/06/30 05:52:18;;;;;;;0.30;0.30;;;23.10;53.80;;;;;;6267689;28;20087;-66
2022/06/30 05:55:19;;;;;;;0.30;0.30;;;23.10;53.80;;;;;;6255903;28;20027;-68
2022/06/30 05:58:19;;;;;;;0.35;0.35;;;23.10;53.80;;;;;;6257935;28;20064;-68
2022/06/30 06:01:21;;;;;;;0.75;0.40;;;23.10;53.80;;;;;;6266122;28;20040;-67
2022/06/30 06:04:21;;;;;;;1.65;0.60;;;23.10;53.30;;;;;;6269143;28;20029;-67
2022/06/30 06:07:22;;;;;;;0.90;0.40;;;23.20;52.10;;;;;;6268758;28;20035;-68
2022/06/30 06:10:22;;;;;;;1.25;0.50;;;23.20;53.00;;;;;;6268696;28;20394;-68
2022/06/30 06:13:23;;;;;;;1.10;0.60;;;23.20;53.30;;;;;;6268411;28;20096;-67
2022/06/30 06:16:24;;;;;;;2.20;0.70;;;23.20;53.40;;;;;;6266493;28;20071;-68
2022/06/30 06:19:25;;;;;;;1.40;0.68;;;23.10;53.40;;;;;;6266621;28;20047;-68
2022/06/30 06:22:25;;;;;;;1.48;0.60;;;23.20;53.50;;;;;;6268497;28;20101;-68
2022/06/30 06:25:26;;;;;;;1.27;0.63;;;23.10;53.60;;;;;;6267907;28;20033;-68
2022/06/30 06:31:47;;;;;;;1.60;0.90;;;23.10;53.70;;;;;;6268327;28;20033;-68
2022/06/30 06:34:48;;;;;;;1.38;0.60;;;23.10;53.80;;;;;;6268180;28;20048;-68
2022/06/30 06:37:49;;;;;;;1.75;1.00;;;23.10;53.80;;;;;;6268489;28;20136;-69
2022/06/30 06:40:49;;;;;;;4.75;0.80;;;23.10;54.00;;;;;;6268576;28;20025;-68
2022/06/30 06:43:51;;;;;;;1.17;0.90;;;23.10;54.00;;;;;;6268313;28;20046;-69
2022/06/30 06:46:52;;;;;;;2.88;0.80;;;23.10;54.10;;;;;;6266881;28;20024;-68
2022/06/30 06:49:52;;;;;;;2.60;1.33;;;23.10;54.20;;;;;;6268664;28;20497;-69
2022/06/30 06:52:53;;;;;;;2.90;1.48;;;23.10;54.60;;;;;;6267048;28;20025;-69
2022/06/30 06:55:54;;;;;;;3.13;1.20;;;23.10;54.40;;;;;;6268233;28;20452;-69
2022/06/30 06:58:54;;;;;;;2.25;1.00;;;23.10;54.60;;;;;;6268488;28;20017;-69
2022/06/30 07:01:55;;;;;;;2.30;0.73;;;23.10;54.50;;;;;;6268014;28;20024;-69
2022/06/30 07:04:56;;;;;;;2.53;1.20;;;23.10;54.40;;;;;;6268038;28;20028;-68
2022/06/30 07:08:01;;;;;;;5.10;1.50;;;23.10;54.90;;;;;;6267983;28;20123;-69
2022/06/30 07:11:03;;;;;;;10.13;2.22;;;23.10;55.50;;;;;;6266731;28;20040;-68
2022/06/30 07:14:04;;;;;;;4.05;1.48;;;23.10;55.60;;;;;;6266607;28;20048;-69
2022/06/30 07:17:05;;;;;;;2.65;1.55;;;23.10;56.10;;;;;;6267869;28;20021;-69
2022/06/30 07:20:06;;;;;;;2.75;1.50;;;23.10;55.10;;;;;;6267722;28;20029;-68
2022/06/30 07:23:07;;;;;;;1.48;1.20;;;23.10;55.20;;;;;;6267014;28;20116;-68
2022/06/30 07:26:07;;;;;;;3.72;1.70;;;23.10;55.00;;;;;;6266489;28;20078;-68
2022/06/30 07:29:08;;;;;;;5.55;2.28;;;23.10;55.50;;;;;;6271173;28;20138;-68
2022/06/30 07:32:09;;;;;;;3.35;1.45;;;23.10;56.00;;;;;;6271304;28;20099;-68
2022/06/30 07:35:10;;;;;;;2.33;1.17;;;23.10;55.50;;;;;;6272457;28;20025;-68
2022/06/30 07:38:11;;;;;;;3.67;1.70;;;23.10;55.40;;;;;;6271626;28;20021;-68
2022/06/30 07:41:12;;;;;;;5.32;1.50;;;23.10;55.20;;;;;;6270855;28;20033;-68
2022/06/30 07:44:12;;;;;;;1.60;1.00;;;23.10;54.90;;;;;;6271751;28;20448;-68
2022/06/30 07:47:14;;;;;;;2.35;1.40;;;23.10;54.80;;;;;;6270352;28;20028;-68
2022/06/30 07:50:17;;;;;;;4.53;1.63;;;23.10;55.10;;;;;;6271728;28;20455;-69
2022/06/30 07:53:18;;;;;;;2.05;1.15;;;23.10;55.10;;;;;;6270406;28;20033;-68
2022/06/30 07:56:18;;;;;;;3.63;1.23;;;23.10;55.10;;;;;;6271859;28;20678;-68
2022/06/30 07:59:19;;;;;;;3.22;1.52;;;23.10;55.10;;;;;;6271693;28;20057;-68
2022/06/30 08:02:20;;;;;;;3.50;1.40;;;23.10;55.10;;;;;;6270346;28;20120;-68
2022/06/30 08:05:21;;;;;;;2.13;1.30;;;23.10;55.10;;;;;;6270406;28;20036;-68
2022/06/30 08:08:21;;;;;;;2.95;1.63;;;23.10;55.20;;;;;;6271523;28;20103;-69
2022/06/30 08:11:23;;;;;;;3.65;1.35;;;23.10;55.50;;;;;;6271902;28;20021;-68
2022/06/30 08:14:40;;;;;;;3.90;1.90;;;23.10;55.30;;;;;;6273470;28;20715;-68
2022/06/30 08:17:42;;;;;;;2.85;1.38;;;23.10;55.60;;;;;;6271439;28;20040;-68
2022/06/30 08:20:43;;;;;;;2.63;1.38;;;23.10;55.20;;;;;;6270596;28;20389;-68
2022/06/30 08:23:44;;;;;;;1.85;1.27;;;23.10;55.20;;;;;;6270010;28;20051;-68
2022/06/30 08:26:45;;;;;;;1.75;1.35;;;23.10;55.30;;;;;;6270047;28;20029;-68
2022/06/30 08:29:45;;;;;;;2.25;1.60;;;23.10;55.00;;;;;;6271215;28;20043;-67
2022/06/30 08:32:46;;;;;;;2.08;1.52;;;23.10;54.90;;;;;;6271315;23;20051;-67
2022/06/30 08:35:47;;;;;;;3.13;1.48;;;23.10;55.20;;;;;;6213654;28;20042;-68
2022/06/30 08:38:47;;;;;;;3.75;1.58;;;23.10;55.00;;;;;;6245023;28;20025;-68
2022/06/30 08:42:03;;;;;;;3.30;1.40;;;23.10;55.10;;;;;;6236404;28;20026;-68
2022/06/30 08:45:13;;;;;;;2.63;1.38;;;23.10;55.10;;;;;;6221701;28;20406;-68
2022/06/30 08:48:14;;;;;;;2.97;1.55;;;23.10;55.10;;;;;;6242532;28;20049;-68
2022/06/30 08:51:16;;;;;;;1.58;1.20;;;23.10;54.90;;;;;;6228103;28;20022;-68
2022/06/30 08:54:19;;;;;;;3.95;1.13;;;23.10;54.90;;;;;;6209807;28;20022;-68
2022/06/30 08:57:21;;;;;;;1.65;1.30;;;23.10;55.00;;;;;;6232245;28;20527;-68
2022/06/30 09:00:22;;;;;;;1.92;1.10;;;23.10;55.00;;;;;;6212785;28;20057;-69
2022/06/30 09:03:23;;;;;;;7.72;1.08;;;23.20;53.30;;;;;;6222352;28;20030;-69
2022/06/30 09:06:24;;;;;;;2.53;1.10;;;23.30;52.20;;;;;;6220850;28;20053;-68
2022/06/30 09:09:25;;;;;;;3.65;1.00;;;23.50;51.50;;;;;;6218728;28;20054;-68
2022/06/30 09:12:27;;;;;;;3.47;1.17;;;23.60;51.20;;;;;;6228067;28;20034;-69
2022/06/30 09:15:38;;;;;;;3.38;1.08;;;23.60;51.20;;;;;;6245259;28;20064;-69
2022/06/30 09:18:39;;;;;;;1.50;1.17;;;23.80;51.60;;;;;;6225977;28;20035;-70
2022/06/30 09:21:40;;;;;;;3.55;1.42;;;23.80;50.80;;;;;;6220587;28;20516;-69
2022/06/30 09:24:41;;;;;;;2.05;1.20;;;23.90;50.70;;;;;;6219966;28;20026;-68
2022/06/30 09:27:44;;;;;;;1.23;1.00;;;23.90;50.70;;;;;;6234166;28;20028;-68
2022/06/30 09:30:45;;;;;;;5.05;1.05;;;24.00;50.30;;;;;;6219793;28;20422;-68
2022/06/30 09:33:47;;;;;;;1.70;0.95;;;24.00;50.50;;;;;;6221376;28;20045;-69
2022/06/30 09:36:50;;;;;;;4.75;1.02;;;24.10;50.50;;;;;;6219761;28;20022;-68
2022/06/30 09:39:54;;;;;;;1.85;1.10;;;24.20;50.10;;;;;;6221565;28;20086;-68
2022/06/30 09:42:54;;;;;;;1.27;1.10;;;24.10;49.70;;;;;;6220488;28;20018;-68
2022/06/30 09:45:55;;;;;;;4.05;1.05;;;24.20;49.60;;;;;;6220164;28;20395;-69
2022/06/30 09:48:56;;;;;;;3.45;1.00;;;24.20;49.40;;;;;;6225953;28;20050;-68
2022/06/30 09:51:56;;;;;;;3.70;1.20;;;24.20;49.30;;;;;;6220431;28;20113;-68
2022/06/30 09:55:02;;;;;;;5.43;1.30;;;24.20;49.20;;;;;;6221706;28;20065;-68
2022/06/30 09:58:03;;;;;;;1.25;0.90;;;24.20;49.20;;;;;;6220092;28;20026;-68
2022/06/30 10:01:04;;;;;;;4.00;1.00;;;24.20;49.10;;;;;;6219831;28;20041;-68
2022/06/30 10:04:08;;;;;;;1.52;0.98;;;24.20;49.00;;;;;;6216354;28;20040;-68
2022/06/30 10:07:09;;;;;;;1.13;1.00;;;24.20;48.90;;;;;;6224006;28;20040;-67
2022/06/30 10:10:15;;;;;;;2.33;0.90;;;24.20;48.80;;;;;;6221132;28;20030;-67
2022/06/30 10:13:17;;;;;;;4.93;0.90;;;24.20;48.80;;;;;;6221146;28;20032;-68
2022/06/30 10:16:21;;;;;;;1.15;0.80;;;24.30;48.80;;;;;;6220058;28;20479;-68
2022/06/30 10:19:22;;;;;;;2.20;1.00;;;24.30;48.50;;;;;;6221032;28;20026;-67
2022/06/30 10:22:26;;;;;;;3.33;0.90;;;24.30;48.40;;;;;;6222139;28;20655;-67
2022/06/30 10:25:28;;;;;;;2.10;1.00;;;24.30;48.30;;;;;;6246931;28;20520;-68
2022/06/30 10:28:29;;;;;;;1.60;0.90;;;24.30;48.20;;;;;;6244537;28;20033;-67
2022/06/30 10:31:38;;;;;;;1.25;0.80;;;24.40;48.20;;;;;;6234646;28;20057;-67
2022/06/30 10:34:52;;;;;;;1.13;0.80;;;24.40;48.20;;;;;;6220160;28;20065;-68
2022/06/30 10:38:16;;;;;;;4.10;0.85;;;24.40;48.20;;;;;;6220277;28;20057;-67
2022/06/30 10:41:18;;;;;;;2.03;0.90;;;24.40;48.20;;;;;;6219397;28;20037;-67
2022/06/30 10:44:25;;;;;;;0.95;0.80;;;24.40;48.10;;;;;;6234109;28;20025;-67
2022/06/30 10:47:26;;;;;;;1.20;0.70;;;24.40;48.00;;;;;;6243834;28;20029;-68
2022/06/30 10:50:40;;;;;;;1.67;1.00;;;24.40;48.00;;;;;;6245252;28;20079;-68
2022/06/30 10:53:41;;;;;;;0.60;0.60;;;24.30;47.80;;;;;;6244780;28;20076;-67
2022/06/30 10:56:54;;;;;;;1.77;0.90;;;24.40;47.90;;;;;;6245176;28;20025;-67
2022/06/30 10:59:55;;;;;;;1.08;0.93;;;24.40;47.80;;;;;;6243622;28;20026;-68
2022/06/30 11:02:55;;;;;;;5.57;0.82;;;24.40;48.30;;;;;;6244195;28;20028;-67
2022/06/30 11:05:59;;;;;;;0.85;0.80;;;24.40;48.40;;;;;;6240774;28;20033;-68
2022/06/30 11:09:00;;;;;;;1.77;0.73;;;24.50;48.50;;;;;;6225310;28;20600;-68
2022/06/30 11:12:01;;;;;;;2.40;0.88;;;24.50;49.00;;;;;;6223750;28;20025;-69
2022/06/30 11:15:02;;;;;;;1.08;0.77;;;24.60;48.00;;;;;;6225040;28;20050;-68
2022/06/30 11:18:03;;;;;;;1.00;0.70;;;24.60;47.80;;;;;;6223252;28;20029;-69
2022/06/30 11:21:04;;;;;;;3.72;0.70;;;24.60;48.30;;;;;;6224692;28;20112;-67
2022/06/30 11:24:06;;;;;;;2.47;0.77;;;24.60;49.50;;;;;;6224697;28;20073;-68
2022/06/30 11:27:17;;;;;;;2.05;0.95;;;24.60;50.40;;;;;;6224512;28;20026;-68
2022/06/30 11:30:18;;;;;;;1.48;0.80;;;24.70;48.50;;;;;;6224376;28;20096;-67
2022/06/30 11:33:19;;;;;;;9.70;2.60;;;24.70;48.40;;;;;;6222234;28;20068;-68
2022/06/30 11:36:20;;;;;;;3.30;1.50;;;24.70;49.00;;;;;;6223593;28;20129;-68
2022/06/30 11:39:21;;;;;;;4.68;1.50;;;24.80;48.30;;;;;;6230476;28;20029;-68
2022/06/30 11:42:22;;;;;;;15.55;2.85;;;24.90;48.30;;;;;;6249326;28;20084;-67
2022/06/30 11:45:25;;;;;;;7.90;2.00;;;24.90;47.40;;;;;;6249299;28;20390;-68
2022/06/30 11:48:27;;;;;;;7.38;2.17;;;25.00;48.20;;;;;;6247747;28;20056;-68
2022/06/30 11:51:29;;;;;;;7.97;2.33;;;25.00;47.50;;;;;;6243920;28;20033;-68
2022/06/30 11:54:30;;;;;;;10.88;3.10;;;25.10;48.20;;;;;;6233457;28;20022;-67
2022/06/30 11:57:36;;;;;;;12.40;3.17;;;25.10;47.20;;;;;;6224322;28;20386;-67
2022/06/30 12:00:37;;;;;;;9.63;2.90;;;25.10;48.70;;;;;;6239604;28;20052;-67
2022/06/30 12:03:37;;;;;;;13.23;3.65;;;25.10;47.20;;;;;;6249020;28;20021;-67
2022/06/30 12:06:41;;;;;;;15.65;3.40;;;25.10;47.90;;;;;;6247545;28;20036;-67
2022/06/30 12:09:44;;;;;;;12.65;3.25;;;25.20;47.30;;;;;;6229136;28;20021;-68
2022/06/30 12:12:45;;;;;;;19.48;3.65;;;25.20;47.50;;;;;;6227817;28;20026;-68
2022/06/30 12:15:46;;;;;;;15.30;4.05;;;25.20;46.90;;;;;;6246136;28;20021;-67
2022/06/30 12:18:46;;;;;;;16.25;4.05;;;25.20;47.80;;;;;;6245995;28;20605;-68
2022/06/30 12:21:49;;;;;;;14.10;3.90;;;25.20;47.80;;;;;;6247736;28;20033;-68
2022/06/30 12:24:51;;;;;;;14.07;3.55;;;25.20;47.50;;;;;;6241836;28;20018;-68
2022/06/30 12:27:56;;;;;;;12.57;3.38;;;25.20;47.30;;;;;;6223063;28;20029;-67
2022/06/30 12:30:57;;;;;;;;;;;25.30;47.30;;;;;;6229367;28;20072;-67
2022/06/30 12:34:00;;;;;;;15.57;4.30;;;25.40;47.50;;;;;;6222132;28;19925;-68
2022/06/30 12:38:49;;;;;;;19.75;3.65;;;25.40;46.60;;;;;;6290005;28;20412;-68
2022/06/30 12:42:00;;;;;;;18.10;3.97;;;25.30;46.70;;;;;;6289768;28;20032;-68
2022/06/30 12:45:01;;;;;;;16.75;4.22;;;25.20;47.20;;;;;;6289813;28;20537;-68
2022/06/30 12:48:03;;;;;;;12.57;3.78;;;25.20;47.90;;;;;;6288455;28;20035;-69
2022/06/30 12:51:04;;;;;;;11.45;3.50;;;25.10;47.10;;;;;;6289100;28;20063;-68
2022/06/30 12:54:08;;;;;;;10.98;3.63;;;25.10;47.10;;;;;;6289483;28;20029;-68
2022/06/30 12:57:09;;;;;;;10.05;3.15;;;25.10;47.10;;;;;;6290115;28;20052;-68
2022/06/30 13:00:11;;;;;;;9.15;3.40;;;25.00;47.00;;;;;;6270808;28;20033;-69
2022/06/30 13:03:13;;;;;;;7.90;2.58;;;25.10;46.90;;;;;;6290454;28;20415;-68
2022/06/30 13:06:14;;;;;;;8.82;3.03;;;25.10;47.00;;;;;;6289416;28;20029;-68
2022/06/30 13:09:17;;;;;;;9.60;2.63;;;25.00;47.00;;;;;;6289725;28;20040;-67
2022/06/30 13:12:18;;;;;;;8.27;3.28;;;25.00;47.00;;;;;;6284914;28;20156;-68
2022/06/30 13:15:19;;;;;;;7.00;2.80;;;25.00;46.90;;;;;;6265885;28;20370;-67
2022/06/30 13:18:19;;;;;;;8.15;2.72;;;25.00;46.90;;;;;;6289198;28;20431;-68
2022/06/30 13:21:21;;;;;;;10.85;2.85;;;25.00;47.10;;;;;;6289532;28;20025;-69
2022/06/30 13:24:22;;;;;;;7.18;2.50;;;25.00;47.00;;;;;;6288382;28;20087;-68
2022/06/30 13:27:22;;;;;;;9.43;2.42;;;25.00;47.00;;;;;;6289415;28;20088;-68
2022/06/30 13:30:23;;;;;;;5.57;2.80;;;25.00;47.00;;;;;;6288263;28;20447;-69
2022/06/30 13:33:24;;;;;;;9.18;2.70;;;25.00;46.90;;;;;;6289310;28;20035;-68
2022/06/30 13:36:27;;;;;;;6.50;2.60;;;24.90;46.80;;;;;;6288953;28;20076;-69
2022/06/30 13:39:28;;;;;;;7.07;2.42;;;24.90;46.80;;;;;;6271110;28;20402;-69
2022/06/30 13:42:29;;;;;;;8.00;2.78;;;24.90;46.80;;;;;;6289524;28;20610;-69
2022/06/30 13:45:29;;;;;;;4.53;2.67;;;24.90;46.80;;;;;;6272896;28;20043;-69
2022/06/30 13:48:30;;;;;;;8.52;2.50;;;24.90;46.80;;;;;;6279450;28;20127;-69
2022/06/30 13:51:33;;;;;;;4.60;2.05;;;24.90;46.80;;;;;;6272428;28;20017;-69
2022/06/30 13:54:33;;;;;;;5.07;2.50;;;24.90;46.80;;;;;;6291931;28;20086;-71
2022/06/30 13:57:34;;;;;;;5.25;2.40;;;24.90;46.80;;;;;;6297035;28;20375;-69
2022/06/30 14:00:35;;;;;;;4.75;2.15;;;24.90;46.60;;;;;;6289550;28;20025;-69
2022/06/30 14:03:36;;;;;;;4.43;1.85;;;24.90;46.70;;;;;;6272534;28;20116;-68
2022/06/30 14:06:37;;;;;;;5.60;1.90;;;24.90;46.50;;;;;;6259833;28;20925;-67
2022/06/30 14:09:38;;;;;;;5.55;2.30;;;24.90;46.80;;;;;;6269579;28;20021;-71
2022/06/30 14:12:40;;;;;;;4.97;2.22;;;24.90;46.80;;;;;;6271738;28;20147;-69
2022/06/30 14:15:40;;;;;;;5.03;2.00;;;24.90;46.80;;;;;;6290274;28;20024;-69
2022/06/30 14:18:41;;;;;;;5.28;2.05;;;24.90;46.70;;;;;;6275223;28;20025;-68
2022/06/30 14:21:42;;;;;;;3.25;1.67;;;24.90;46.60;;;;;;6270677;28;20029;-68
2022/06/30 14:24:43;;;;;;;2.85;1.63;;;24.90;46.50;;;;;;6270500;28;20175;-69
2022/06/30 14:27:44;;;;;;;4.22;1.85;;;24.90;46.50;;;;;;6271212;28;20033;-68
2022/06/30 14:30:45;;;;;;;4.43;1.67;;;24.90;46.30;;;;;;6271486;28;20516;-68
2022/06/30 14:33:45;;;;;;;5.85;2.10;;;24.90;46.20;;;;;;6271469;28;20036;-69
2022/06/30 14:36:49;;;;;;;5.75;2.20;;;24.90;46.40;;;;;;6263143;28;20501;-68
2022/06/30 14:39:51;;;;;;;5.45;1.40;;;24.90;46.30;;;;;;6255337;28;20056;-69
2022/06/30 14:42:53;;;;;;;4.93;1.92;;;24.90;46.30;;;;;;6271046;28;20017;-68
2022/06/30 14:45:54;;;;;;;3.30;1.73;;;24.90;46.50;;;;;;6270925;28;20017;-67
2022/06/30 14:48:55;;;;;;;4.75;1.98;;;24.90;46.30;;;;;;6271105;28;20024;-67
2022/06/30 14:51:56;;;;;;;4.95;1.73;;;24.90;46.20;;;;;;6269358;28;20033;-68
2022/06/30 14:54:56;;;;;;;4.50;1.50;;;24.90;46.20;;;;;;6252055;28;20649;-68
2022/06/30 14:57:58;;;;;;;2.78;1.67;;;24.90;46.10;;;;;;6270464;28;20032;-68
2022/06/30 15:00:58;;;;;;;2.42;1.40;;;24.90;46.10;;;;;;6270003;28;20027;-68
2022/06/30 15:03:59;;;;;;;4.20;1.75;;;24.80;46.00;;;;;;6271159;28;20389;-67
2022/06/30 15:07:00;;;;;;;2.22;1.30;;;24.90;46.10;;;;;;6258139;28;20772;-68
2022/06/30 15:10:02;;;;;;;2.58;1.52;;;24.90;46.80;;;;;;6269812;28;20072;-68
2022/06/30 15:13:03;;;;;;;4.55;2.05;;;24.90;46.20;;;;;;6259391;28;20021;-67
2022/06/30 15:16:04;;;;;;;2.97;1.60;;;24.90;46.10;;;;;;6248266;28;20033;-67
2022/06/30 15:19:05;;;;;;;3.85;1.63;;;24.80;46.00;;;;;;6245642;28;20067;-67
2022/06/30 15:25:25;;;;;;;1.92;1.17;;;24.90;46.30;;;;;;6270807;28;20025;-67
2022/06/30 15:28:25;;;;;;;2.90;1.30;;;24.90;46.10;;;;;;6269467;28;20778;-68
2022/06/30 15:31:26;;;;;;;3.97;1.42;;;24.90;46.30;;;;;;6269152;28;20025;-68
2022/06/30 15:34:28;;;;;;;2.35;1.48;;;24.90;46.00;;;;;;6270240;28;20037;-68
2022/06/30 15:37:33;;;;;;;3.47;1.45;;;24.90;46.00;;;;;;6269496;28;20047;-68
2022/06/30 15:40:34;;;;;;;2.60;1.40;;;24.90;45.90;;;;;;6269797;28;20079;-68
2022/06/30 15:43:35;;;;;;;2.25;1.20;;;24.90;46.00;;;;;;6270032;28;20029;-68
2022/06/30 15:46:36;;;;;;;2.55;1.40;;;24.90;45.80;;;;;;6269649;28;20048;-68
2022/06/30 15:49:37;;;;;;;2.45;1.40;;;24.90;45.90;;;;;;6269722;28;20035;-69
2022/06/30 15:52:38;;;;;;;1.67;1.17;;;24.90;45.80;;;;;;6268445;28;20022;-68
2022/06/30 15:55:38;;;;;;;2.38;1.08;;;24.80;46.40;;;;;;6269500;28;20036;-69
2022/06/30 15:58:39;;;;;;;2.75;1.45;;;24.90;45.80;;;;;;6269612;28;20059;-69